createdAt,value
2023-03-19T00:00:19.989Z,10.07
2023-03-19T00:02:51.255Z,9.20
2023-03-19T00:05:19.106Z,9.20
2023-03-19T00:07:45.896Z,9.37
2023-03-19T00:10:12.488Z,9.60
2023-03-19T00:12:39.100Z,9.10
2023-03-19T00:15:09.080Z,9.40
2023-03-19T00:17:35.918Z,8.50
2023-03-19T00:20:02.463Z,9.37
2023-03-19T00:22:29.024Z,8.83
2023-03-19T00:24:55.583Z,9.47
2023-03-19T00:27:22.034Z,9.47
2023-03-19T00:29:48.715Z,9.90
2023-03-19T00:32:15.702Z,9.97
2023-03-19T00:34:43.160Z,8.70
2023-03-19T00:37:09.697Z,9.13
2023-03-19T00:39:36.232Z,8.63
2023-03-19T00:42:02.754Z,8.87
2023-03-19T00:44:29.238Z,9.07
2023-03-19T00:46:55.716Z,8.67
2023-03-19T00:49:22.377Z,9.10
2023-03-19T00:51:48.930Z,8.87
2023-03-19T00:54:15.464Z,9.10
2023-03-19T00:56:42.053Z,8.87
2023-03-19T00:59:08.737Z,8.33
2023-03-19T01:01:35.408Z,8.80
2023-03-19T01:04:02.006Z,8.13
2023-03-19T01:06:28.588Z,8.00
2023-03-19T01:08:55.378Z,7.97
2023-03-19T01:11:21.941Z,8.37
2023-03-19T01:13:48.507Z,9.27
2023-03-19T01:16:14.952Z,8.53
2023-03-19T01:18:41.657Z,7.93
2023-03-19T01:21:08.376Z,8.30
2023-03-19T01:23:34.984Z,9.50
2023-03-19T01:26:01.865Z,9.00
2023-03-19T01:28:28.375Z,8.70
2023-03-19T01:31:00.059Z,8.43
2023-03-19T01:33:26.841Z,8.57
2023-03-19T01:35:53.434Z,9.20
2023-03-19T01:38:19.932Z,8.87
2023-03-19T01:40:47.985Z,8.60
2023-03-19T01:43:19.979Z,7.93
2023-03-19T01:45:48.968Z,7.67
2023-03-19T01:48:27.524Z,8.10
2023-03-19T01:50:55.552Z,8.13
2023-03-19T01:53:30.049Z,8.37
2023-03-19T01:56:02.936Z,7.27
2023-03-19T01:58:30.007Z,7.57
2023-03-19T02:00:57.291Z,7.90
2023-03-19T02:03:25.233Z,8.30
2023-03-19T02:05:53.227Z,7.30
2023-03-19T02:08:23.059Z,7.40
2023-03-19T02:10:51.544Z,8.60
2023-03-19T02:13:18.190Z,7.37
2023-03-19T02:15:44.935Z,7.47
2023-03-19T02:18:12.062Z,6.70
2023-03-19T02:20:49.550Z,6.60
2023-03-19T02:23:38.555Z,6.13
2023-03-19T02:26:14.585Z,6.30
2023-03-19T02:28:46.560Z,6.97
2023-03-19T02:31:13.838Z,6.47
2023-03-19T02:33:41.045Z,6.70
2023-03-19T02:36:13.580Z,6.30
2023-03-19T02:38:42.880Z,7.30
2023-03-19T02:41:09.961Z,7.40
2023-03-19T02:43:38.693Z,6.90
2023-03-19T02:46:08.342Z,6.47
2023-03-19T02:48:35.101Z,6.53
2023-03-19T02:51:01.820Z,5.77
2023-03-19T02:53:28.381Z,6.73
2023-03-19T02:55:55.015Z,6.67
2023-03-19T02:58:21.733Z,6.13
2023-03-19T03:00:48.585Z,6.50
2023-03-19T03:03:15.177Z,7.67
2023-03-19T03:05:41.679Z,7.30
2023-03-19T03:08:09.392Z,7.17
2023-03-19T03:10:36.448Z,7.97
2023-03-19T03:13:03.264Z,7.63
2023-03-19T03:15:29.850Z,7.27
2023-03-19T03:17:57.001Z,7.00
2023-03-19T03:20:24.792Z,6.87
2023-03-19T03:22:52.003Z,7.93
2023-03-19T03:25:18.542Z,6.87
2023-03-19T03:27:45.063Z,7.20
2023-03-19T03:30:12.856Z,6.33
2023-03-19T03:32:39.985Z,7.80
2023-03-19T03:35:08.454Z,7.07
2023-03-19T03:37:35.592Z,7.20
2023-03-19T03:40:04.249Z,6.33
2023-03-19T03:42:30.976Z,6.27
2023-03-19T03:44:57.421Z,6.03
2023-03-19T03:47:23.985Z,5.97
2023-03-19T03:49:50.980Z,6.33
2023-03-19T03:52:17.859Z,6.33
2023-03-19T03:54:44.500Z,6.20
2023-03-19T03:57:11.040Z,6.90
2023-03-19T03:59:37.600Z,6.90
2023-03-19T04:02:04.121Z,6.73
2023-03-19T04:04:31.182Z,7.90
2023-03-19T04:06:57.748Z,9.63
2023-03-19T04:09:24.220Z,10.33
2023-03-19T04:11:51.925Z,6.77
2023-03-19T04:14:18.520Z,6.23
2023-03-19T04:16:45.001Z,5.40
2023-03-19T04:19:11.538Z,5.23
2023-03-19T04:21:38.033Z,5.30
2023-03-19T04:24:04.944Z,5.47
2023-03-19T04:26:31.780Z,5.37
2023-03-19T04:28:58.864Z,4.87
2023-03-19T04:31:25.486Z,5.20
2023-03-19T04:33:52.528Z,6.03
2023-03-19T04:36:19.111Z,5.70
2023-03-19T04:38:45.708Z,5.33
2023-03-19T04:41:12.268Z,5.07
2023-03-19T04:43:38.738Z,5.13
2023-03-19T04:46:06.988Z,5.33
2023-03-19T04:48:35.933Z,5.57
2023-03-19T04:51:03.870Z,5.40
2023-03-19T04:53:30.435Z,6.63
2023-03-19T04:55:57.294Z,5.60
2023-03-19T04:58:24.178Z,6.33
2023-03-19T05:00:50.684Z,6.13
2023-03-19T05:03:17.358Z,5.87
2023-03-19T05:05:43.880Z,20.43
2023-03-19T05:08:10.461Z,13.10
2023-03-19T05:10:38.061Z,6.27
2023-03-19T05:13:05.062Z,5.37
2023-03-19T05:15:31.877Z,6.33
2023-03-19T05:17:58.920Z,6.63
2023-03-19T05:20:25.530Z,7.57
2023-03-19T05:22:53.281Z,6.70
2023-03-19T05:25:19.746Z,6.10
2023-03-19T05:27:46.336Z,6.93
2023-03-19T05:30:13.133Z,5.97
2023-03-19T05:32:40.857Z,8.23
2023-03-19T05:35:08.041Z,6.70
2023-03-19T05:37:34.677Z,6.77
2023-03-19T05:40:01.118Z,7.67
2023-03-19T05:42:27.689Z,6.97
2023-03-19T05:44:54.677Z,6.97
2023-03-19T05:47:21.519Z,7.57
2023-03-19T05:49:48.120Z,7.40
2023-03-19T05:52:14.694Z,7.23
2023-03-19T05:54:41.664Z,7.90
2023-03-19T05:57:08.318Z,7.20
2023-03-19T05:59:34.931Z,7.67
2023-03-19T06:02:01.777Z,7.53
2023-03-19T06:04:28.302Z,7.77
2023-03-19T06:06:54.755Z,42.97
2023-03-19T06:09:21.320Z,21.40
2023-03-19T06:11:47.772Z,9.53
2023-03-19T06:14:14.460Z,8.67
2023-03-19T06:16:40.953Z,8.30
2023-03-19T06:19:07.460Z,7.93
2023-03-19T06:21:33.930Z,7.73
2023-03-19T06:24:00.568Z,8.03
2023-03-19T06:26:27.588Z,8.50
2023-03-19T06:28:54.332Z,7.67
2023-03-19T06:31:21.463Z,8.33
2023-03-19T06:33:49.144Z,8.93
2023-03-19T06:36:15.731Z,8.57
2023-03-19T06:38:42.194Z,9.10
2023-03-19T06:41:08.829Z,8.00
2023-03-19T06:43:38.197Z,8.13
2023-03-19T06:46:05.291Z,7.83
2023-03-19T06:48:31.779Z,8.80
2023-03-19T06:50:58.325Z,8.43
2023-03-19T06:53:25.524Z,7.73
2023-03-19T06:55:52.079Z,8.60
2023-03-19T06:58:18.601Z,8.50
2023-03-19T07:00:45.234Z,7.93
2023-03-19T07:03:12.359Z,8.33
2023-03-19T07:05:39.028Z,8.37
2023-03-19T07:08:11.797Z,8.30
2023-03-19T07:10:39.717Z,8.80
2023-03-19T07:13:06.856Z,7.83
2023-03-19T07:15:34.154Z,7.73
2023-03-19T07:18:00.779Z,6.80
2023-03-19T07:20:27.373Z,7.97
2023-03-19T07:22:54.233Z,7.20
2023-03-19T07:25:21.198Z,7.23
2023-03-19T07:27:47.827Z,7.20
2023-03-19T07:30:15.698Z,7.60
2023-03-19T07:32:43.110Z,6.97
2023-03-19T07:35:10.877Z,6.60
2023-03-19T07:37:37.450Z,6.43
2023-03-19T07:40:05.235Z,7.70
2023-03-19T07:42:31.984Z,7.17
2023-03-19T07:44:58.515Z,6.53
2023-03-19T07:47:29.530Z,7.23
2023-03-19T07:49:57.113Z,6.90
2023-03-19T07:52:25.120Z,6.80
2023-03-19T07:54:52.560Z,6.93
2023-03-19T07:57:19.592Z,6.30
2023-03-19T07:59:46.521Z,6.50
2023-03-19T08:02:13.594Z,6.83
2023-03-19T08:04:41.483Z,5.73
2023-03-19T08:07:10.802Z,5.63
2023-03-19T08:09:37.627Z,6.00
2023-03-19T08:12:05.588Z,5.87
2023-03-19T08:14:33.073Z,5.57
2023-03-19T08:17:00.410Z,6.03
2023-03-19T08:19:26.947Z,6.00
2023-03-19T08:21:53.587Z,5.33
2023-03-19T08:24:20.307Z,5.53
2023-03-19T08:26:48.714Z,5.80
2023-03-19T08:29:17.284Z,5.83
2023-03-19T08:31:45.431Z,5.83
2023-03-19T08:34:12.025Z,6.40
2023-03-19T08:36:38.564Z,5.73
2023-03-19T08:39:05.147Z,6.33
2023-03-19T08:41:31.634Z,5.23
2023-03-19T08:43:58.232Z,5.57
2023-03-19T08:46:25.591Z,5.83
2023-03-19T08:48:52.077Z,5.70
2023-03-19T08:51:18.555Z,4.57
2023-03-19T08:53:45.111Z,6.40
2023-03-19T08:56:11.686Z,5.20
2023-03-19T08:58:38.450Z,6.03
2023-03-19T09:01:10.968Z,5.20
2023-03-19T09:03:38.807Z,4.63
2023-03-19T09:06:07.790Z,4.43
2023-03-19T09:08:35.556Z,4.73
2023-03-19T09:11:02.343Z,4.47
2023-03-19T09:13:28.973Z,4.53
2023-03-19T09:15:55.971Z,4.47
2023-03-19T09:18:25.499Z,4.47
2023-03-19T09:20:55.297Z,4.77
2023-03-19T09:23:22.492Z,4.43
2023-03-19T09:25:49.485Z,4.57
2023-03-19T09:28:16.124Z,4.60
2023-03-19T09:30:43.471Z,4.50
2023-03-19T09:33:10.046Z,3.50
2023-03-19T09:35:39.769Z,3.63
2023-03-19T09:38:06.972Z,3.60
2023-03-19T09:40:44.140Z,2.63
2023-03-19T09:43:27.964Z,3.33
2023-03-19T09:45:54.574Z,2.20
2023-03-19T09:48:34.517Z,2.27
2023-03-19T09:51:06.580Z,2.40
2023-03-19T09:54:01.945Z,2.40
2023-03-19T09:56:28.680Z,2.70
2023-03-19T09:58:55.412Z,3.87
2023-03-19T10:01:35.431Z,2.60
2023-03-19T10:04:32.868Z,3.77
2023-03-19T10:07:17.623Z,3.10
2023-03-19T10:09:56.159Z,2.80
2023-03-19T10:13:01.253Z,2.67
2023-03-19T10:15:46.957Z,2.30
2023-03-19T10:18:19.776Z,2.97
2023-03-19T10:20:58.398Z,2.70
2023-03-19T10:23:50.287Z,2.53
2023-03-19T10:26:22.404Z,1.80
2023-03-19T10:29:04.886Z,2.20
2023-03-19T10:31:40.813Z,2.47
2023-03-19T10:34:21.216Z,2.20
2023-03-19T10:36:47.723Z,2.33
2023-03-19T10:39:19.043Z,2.27
2023-03-19T10:41:54.459Z,6.65
2023-03-19T10:44:37.395Z,2.20
2023-03-19T10:47:12.018Z,1.95
2023-03-19T10:49:38.658Z,1.95
2023-03-19T10:52:06.791Z,2.03
2023-03-19T10:54:33.329Z,2.28
2023-03-19T10:57:01.548Z,1.92
2023-03-19T10:59:30.942Z,1.92
2023-03-19T11:02:19.528Z,2.42
2023-03-19T11:04:46.930Z,2.08
2023-03-19T11:07:17.910Z,1.70
2023-03-19T11:09:48.336Z,2.30
2023-03-19T11:12:19.841Z,2.38
2023-03-19T11:14:52.374Z,2.53
2023-03-19T11:17:49.902Z,2.20
2023-03-19T11:20:35.116Z,2.30
2023-03-19T11:23:06.219Z,2.00
2023-03-19T11:25:42.273Z,2.65
2023-03-19T11:28:19.730Z,1.88
2023-03-19T11:31:02.382Z,2.30
2023-03-19T11:33:54.504Z,11.80
2023-03-19T11:36:55.645Z,4.18
2023-03-19T11:39:28.433Z,2.10
2023-03-19T11:41:57.978Z,1.73
2023-03-19T11:44:45.834Z,1.92
2023-03-19T11:47:30.562Z,2.63
2023-03-19T11:50:08.767Z,2.10
2023-03-19T11:52:40.789Z,2.10
2023-03-19T11:55:32.454Z,2.60
2023-03-19T11:58:26.474Z,2.85
2023-03-19T12:00:55.208Z,2.97
2023-03-19T12:03:30.435Z,2.60
2023-03-19T12:06:00.937Z,2.83
2023-03-19T12:08:55.902Z,3.00
2023-03-19T12:11:41.872Z,2.80
2023-03-19T12:14:26.791Z,12.33
2023-03-19T12:17:16.320Z,3.00
2023-03-19T12:20:01.462Z,2.90
2023-03-19T12:22:43.144Z,3.03
2023-03-19T12:25:26.435Z,2.83
2023-03-19T12:28:00.419Z,2.90
2023-03-19T12:30:34.711Z,3.30
2023-03-19T12:33:26.413Z,3.73
2023-03-19T12:35:56.931Z,7.33
2023-03-19T12:38:33.720Z,15.00
2023-03-19T12:41:07.952Z,5.30
2023-03-19T12:43:42.310Z,5.33
2023-03-19T12:46:13.783Z,5.10
2023-03-19T12:49:03.020Z,4.97
2023-03-19T12:51:42.162Z,4.70
2023-03-19T12:54:14.528Z,4.23
2023-03-19T12:57:01.785Z,4.40
2023-03-19T12:59:37.237Z,4.27
2023-03-19T13:02:18.909Z,4.40
2023-03-19T13:04:55.694Z,3.33
2023-03-19T13:07:28.446Z,3.93
2023-03-19T13:10:06.905Z,3.77
2023-03-19T13:12:38.259Z,3.97
2023-03-19T13:15:21.182Z,3.73
2023-03-19T13:18:03.505Z,3.60
2023-03-19T13:20:48.787Z,4.37
2023-03-19T13:23:24.494Z,2.70
2023-03-19T13:25:54.162Z,2.70
2023-03-19T13:28:31.830Z,2.40
2023-03-19T13:31:03.621Z,2.30
2023-03-19T13:33:31.782Z,2.70
2023-03-19T13:36:03.289Z,2.67
2023-03-19T13:38:40.387Z,2.70
2023-03-19T13:41:32.562Z,3.00
2023-03-19T13:44:00.276Z,2.30
2023-03-19T13:46:35.598Z,2.70
2023-03-19T13:49:26.577Z,2.73
2023-03-19T13:52:21.740Z,2.70
2023-03-19T13:54:54.051Z,3.50
2023-03-19T13:57:32.632Z,14.00
2023-03-19T14:00:37.684Z,3.90
2023-03-19T14:03:06.344Z,3.20
2023-03-19T14:05:36.335Z,2.90
2023-03-19T14:08:17.218Z,3.93
2023-03-19T14:10:49.983Z,5.27
2023-03-19T14:13:40.257Z,5.30
2023-03-19T14:16:21.473Z,5.90
2023-03-19T14:18:49.754Z,6.57
2023-03-19T14:21:31.898Z,8.40
2023-03-19T14:24:57.867Z,9.23
2023-03-19T14:27:17.109Z,10.03
2023-03-19T14:29:45.664Z,9.50
2023-03-19T14:32:18.338Z,9.50
2023-03-19T14:34:46.654Z,9.67
2023-03-19T14:37:22.214Z,8.13
2023-03-19T14:40:02.611Z,10.57
2023-03-19T14:42:50.409Z,10.43
2023-03-19T14:45:41.712Z,10.83
2023-03-19T14:48:33.397Z,10.90
2023-03-19T14:51:09.378Z,11.03
2023-03-19T14:53:41.661Z,10.93
2023-03-19T14:56:16.583Z,10.50
2023-03-19T14:58:50.625Z,9.87
2023-03-19T15:01:18.762Z,9.70
2023-03-19T15:03:46.162Z,8.90
2023-03-19T15:06:15.500Z,10.07
2023-03-19T15:08:42.549Z,11.23
2023-03-19T15:11:15.198Z,10.40
2023-03-19T15:13:59.921Z,11.20
2023-03-19T15:16:35.805Z,13.07
2023-03-19T15:19:02.505Z,10.30
2023-03-19T15:21:31.415Z,9.30
2023-03-19T15:23:58.218Z,10.30
2023-03-19T15:26:33.398Z,10.13
2023-03-19T15:29:00.236Z,10.50
2023-03-19T15:32:04.808Z,10.50
2023-03-19T15:34:33.294Z,10.40
2023-03-19T15:37:04.642Z,11.30
2023-03-19T15:39:36.215Z,11.10
2023-03-19T15:42:04.783Z,11.83
2023-03-19T15:44:39.782Z,22.90
2023-03-19T15:47:11.994Z,12.90
2023-03-19T15:49:44.065Z,13.03
2023-03-19T15:52:15.963Z,14.33
2023-03-19T15:54:42.928Z,14.80
2023-03-19T15:57:13.096Z,14.43
2023-03-19T15:59:39.810Z,15.23
2023-03-19T16:02:18.751Z,15.73
2023-03-19T16:05:14.119Z,14.80
2023-03-19T16:07:43.696Z,14.73
2023-03-19T16:10:32.410Z,12.90
2023-03-19T16:13:05.163Z,12.90
2023-03-19T16:15:44.104Z,12.70
2023-03-19T16:18:16.529Z,12.47
2023-03-19T16:20:45.986Z,13.10
2023-03-19T16:23:18.461Z,12.50
2023-03-19T16:25:46.503Z,13.20
2023-03-19T16:28:23.978Z,12.30
2023-03-19T16:30:51.606Z,13.47
2023-03-19T16:33:19.950Z,12.20
2023-03-19T16:35:46.858Z,13.07
2023-03-19T16:38:17.476Z,13.47
2023-03-19T16:40:48.822Z,15.07
2023-03-19T16:43:23.217Z,14.13
2023-03-19T16:45:52.113Z,14.00
2023-03-19T16:48:19.001Z,13.37
2023-03-19T16:50:47.635Z,12.47
2023-03-19T16:53:26.041Z,12.87
2023-03-19T16:55:55.580Z,12.43
2023-03-19T16:58:29.916Z,12.43
2023-03-19T17:00:56.634Z,13.30
2023-03-19T17:03:23.289Z,13.10
2023-03-19T17:05:50.129Z,14.00
2023-03-19T17:08:16.880Z,15.73
2023-03-19T17:10:49.286Z,14.67
2023-03-19T17:13:22.909Z,14.60
2023-03-19T17:15:50.931Z,14.57
2023-03-19T17:18:22.070Z,13.87
2023-03-19T17:20:57.170Z,14.63
2023-03-19T17:23:26.972Z,15.23
2023-03-19T17:25:54.197Z,13.93
2023-03-19T17:28:20.904Z,36.67
2023-03-19T17:30:47.657Z,28.43
2023-03-19T17:33:25.087Z,23.43
2023-03-19T17:35:53.482Z,17.50
2023-03-19T17:38:22.200Z,16.23
2023-03-19T17:40:48.781Z,16.63
2023-03-19T17:43:15.527Z,17.50
2023-03-19T17:45:46.759Z,17.20
2023-03-19T17:48:21.477Z,16.13
2023-03-19T17:50:49.512Z,17.10
2023-03-19T17:53:18.648Z,17.23
2023-03-19T17:55:46.657Z,17.40
2023-03-19T17:58:18.405Z,17.70
2023-03-19T18:00:46.678Z,17.03
2023-03-19T18:03:19.705Z,18.80
2023-03-19T18:05:46.403Z,17.87
2023-03-19T18:08:19.265Z,19.20
2023-03-19T18:10:45.901Z,18.60
2023-03-19T18:13:12.722Z,19.10
2023-03-19T18:15:41.136Z,17.50
2023-03-19T18:18:16.109Z,19.37
2023-03-19T18:20:42.738Z,20.03
2023-03-19T18:23:11.639Z,36.43
2023-03-19T18:25:38.115Z,38.60
2023-03-19T18:28:05.532Z,25.10
2023-03-19T18:30:34.717Z,22.33
2023-03-19T18:33:04.839Z,22.67
2023-03-19T18:35:40.753Z,23.40
2023-03-19T18:38:19.451Z,22.30
2023-03-19T18:40:47.171Z,23.13
2023-03-19T18:43:16.091Z,23.40
2023-03-19T18:45:48.563Z,23.70
2023-03-19T18:48:24.760Z,22.43
2023-03-19T18:50:52.170Z,22.87
2023-03-19T18:53:19.064Z,23.10
2023-03-19T18:55:47.031Z,22.57
2023-03-19T18:58:28.070Z,25.93
2023-03-19T19:00:55.145Z,23.70
2023-03-19T19:03:28.600Z,24.33
2023-03-19T19:05:56.246Z,25.30
2023-03-19T19:08:25.349Z,25.90
2023-03-19T19:10:55.601Z,25.43
2023-03-19T19:13:26.382Z,26.60
2023-03-19T19:15:53.422Z,23.67
2023-03-19T19:18:22.557Z,24.80
2023-03-19T19:20:51.421Z,26.07
2023-03-19T19:23:19.367Z,23.27
2023-03-19T19:25:48.126Z,24.47
2023-03-19T19:28:22.077Z,24.13
2023-03-19T19:30:49.494Z,26.60
2023-03-19T19:33:18.693Z,25.00
2023-03-19T19:35:45.847Z,24.63
2023-03-19T19:38:13.632Z,25.07
2023-03-19T19:40:42.984Z,25.50
2023-03-19T19:43:18.304Z,26.10
2023-03-19T19:45:47.215Z,26.73
2023-03-19T19:48:16.778Z,26.70
2023-03-19T19:50:44.752Z,27.33
2023-03-19T19:53:11.525Z,26.63
2023-03-19T19:55:38.860Z,25.90
2023-03-19T19:58:08.538Z,27.60
2023-03-19T20:00:35.311Z,32.27
2023-03-19T20:03:01.842Z,27.53
2023-03-19T20:05:32.291Z,26.43
2023-03-19T20:08:02.731Z,27.87
2023-03-19T20:10:30.730Z,27.10
2023-03-19T20:13:01.665Z,27.57
2023-03-19T20:15:33.007Z,28.67
2023-03-19T20:18:02.284Z,30.40
2023-03-19T20:20:32.484Z,30.27
2023-03-19T20:23:01.627Z,29.03
2023-03-19T20:25:32.514Z,30.50
2023-03-19T20:28:01.396Z,29.87
2023-03-19T20:30:31.941Z,31.07
2023-03-19T20:32:59.719Z,31.60
2023-03-19T20:35:29.242Z,31.47
2023-03-19T20:37:57.568Z,29.33
2023-03-19T20:40:46.708Z,30.17
2023-03-19T20:43:33.274Z,30.80
2023-03-19T20:46:02.937Z,28.97
2023-03-19T20:48:30.757Z,30.03
2023-03-19T20:50:58.352Z,32.67
2023-03-19T20:53:25.015Z,29.93
2023-03-19T20:55:52.232Z,26.17
2023-03-19T20:58:34.668Z,26.37
2023-03-19T21:01:01.371Z,30.23
2023-03-19T21:03:30.060Z,27.73
2023-03-19T21:06:05.234Z,26.30
2023-03-19T21:08:39.136Z,25.00
2023-03-19T21:11:08.884Z,25.67
2023-03-19T21:13:35.522Z,25.43
2023-03-19T21:16:02.062Z,25.40
2023-03-19T21:18:28.603Z,24.10
2023-03-19T21:20:57.227Z,22.20
2023-03-19T21:23:37.287Z,24.30
2023-03-19T21:26:19.485Z,22.77
2023-03-19T21:28:49.615Z,23.77
2023-03-19T21:31:18.993Z,22.73
2023-03-19T21:33:46.673Z,23.63
2023-03-19T21:36:14.313Z,22.53
2023-03-19T21:38:41.780Z,22.50
2023-03-19T21:41:28.892Z,21.07
2023-03-19T21:43:57.858Z,22.03
2023-03-19T21:46:27.535Z,20.50
2023-03-19T21:48:55.378Z,20.13
2023-03-19T21:51:23.658Z,19.33
2023-03-19T21:53:50.169Z,20.17
2023-03-19T21:56:25.609Z,18.70
2023-03-19T21:58:53.350Z,20.43
2023-03-19T22:01:23.783Z,18.77
2023-03-19T22:03:51.759Z,19.00
2023-03-19T22:06:19.227Z,20.03
2023-03-19T22:08:48.181Z,17.97
2023-03-19T22:11:22.878Z,19.53
2023-03-19T22:13:49.547Z,17.67
2023-03-19T22:16:23.928Z,18.97
2023-03-19T22:18:51.978Z,21.87
2023-03-19T22:21:21.754Z,18.90
2023-03-19T22:23:48.913Z,20.00
2023-03-19T22:26:29.450Z,20.80
2023-03-19T22:28:58.490Z,18.53
2023-03-19T22:31:25.578Z,19.17
2023-03-19T22:33:52.666Z,20.17
2023-03-19T22:36:19.310Z,18.50
2023-03-19T22:38:47.009Z,19.33
2023-03-19T22:41:39.786Z,19.53
2023-03-19T22:44:10.877Z,18.60
2023-03-19T22:46:37.376Z,18.90
2023-03-19T22:49:12.717Z,20.17
2023-03-19T22:51:39.292Z,21.20
2023-03-19T22:54:06.016Z,19.10
2023-03-19T22:56:32.499Z,19.43
2023-03-19T22:58:59.174Z,21.27
2023-03-19T23:01:32.728Z,19.43
2023-03-19T23:04:14.380Z,18.70
2023-03-19T23:06:41.154Z,20.97
2023-03-19T23:09:13.841Z,21.03
2023-03-19T23:11:40.344Z,21.17
2023-03-19T23:14:10.333Z,20.60
2023-03-19T23:16:43.627Z,21.13
2023-03-19T23:19:18.345Z,20.53
2023-03-19T23:21:44.861Z,21.13
2023-03-19T23:24:13.168Z,20.77
2023-03-19T23:26:43.040Z,20.17
2023-03-19T23:29:22.383Z,20.53
2023-03-19T23:31:50.765Z,21.53
2023-03-19T23:34:17.873Z,20.20
2023-03-19T23:36:44.697Z,20.97
2023-03-19T23:39:11.474Z,21.67
2023-03-19T23:41:48.342Z,21.17
2023-03-19T23:44:16.770Z,21.03
2023-03-19T23:46:45.029Z,20.20
2023-03-19T23:49:18.260Z,22.90
2023-03-19T23:51:44.769Z,20.93
2023-03-19T23:54:28.608Z,21.13
2023-03-19T23:57:01.639Z,22.00
2023-03-19T23:59:34.471Z,24.00
